Helenville, Wisconsin
Current Conditions -  °F | °C
As of 9:15 AM on Friday 31 Oct 2014 (Local Time) from KRYV Reporting Station
Overcast Overcast  
Wind Chill: 21°   Ceiling: 3400
Heat Index: 33°   Visibility: 10mi
Dew Point: 26°   Wind: 22mph
Humidity: 76%   Direction: 340°NNW
Pressure: 30.22"   Gusts: 35mph
Location:  43.01°N, 88.7°W
Report Text: KRYV 311415Z AUTO 34019G30KT 10SM OVC034 01/M03 A3022 RMK AO2 T00051032
Loading
Personal Weather Stations






























Interactive Weather Map
Tropical Storm Tracking
New forecast layout! Learn more

10-Day Weather Forecast

Advertisements
Track Severe Weather on mobile